createdAt,value
2018-06-10T00:02:48.695Z,10.50
2018-06-10T00:07:52.646Z,10.87
2018-06-10T00:13:59.536Z,11.30
2018-06-10T00:19:03.511Z,9.50
2018-06-10T00:24:07.467Z,8.27
2018-06-10T00:29:17.019Z,16.83
2018-06-10T00:34:20.990Z,12.47
2018-06-10T00:39:24.995Z,16.10
2018-06-10T00:44:28.976Z,7.73
2018-06-10T00:49:32.974Z,12.63
2018-06-10T00:54:36.942Z,14.17
2018-06-10T00:59:40.679Z,12.97
2018-06-10T01:04:44.539Z,8.40
2018-06-10T01:09:48.503Z,11.93
2018-06-10T01:14:52.257Z,13.93
2018-06-10T01:19:56.143Z,14.67
2018-06-10T01:24:59.872Z,7.23
2018-06-10T01:30:03.751Z,9.97
2018-06-10T01:35:08.131Z,10.10
2018-06-10T01:40:11.868Z,11.13
2018-06-10T01:45:15.940Z,8.37
2018-06-10T01:50:19.933Z,10.10
2018-06-10T01:55:23.899Z,8.50
2018-06-10T02:00:27.907Z,9.37
2018-06-10T02:05:31.867Z,7.97
2018-06-10T02:10:35.639Z,9.93
2018-06-10T02:15:39.579Z,9.23
2018-06-10T02:20:43.554Z,10.43
2018-06-10T02:25:47.535Z,10.20
2018-06-10T02:30:51.577Z,13.57
2018-06-10T02:35:55.494Z,13.77
2018-06-10T02:40:59.395Z,10.23
2018-06-10T02:46:03.379Z,10.00
2018-06-10T02:51:07.371Z,10.87
2018-06-10T02:56:11.386Z,8.83
2018-06-10T03:01:15.395Z,8.07
2018-06-10T03:06:19.379Z,9.90
2018-06-10T03:11:23.352Z,8.83
2018-06-10T03:16:27.327Z,10.93
2018-06-10T03:21:31.263Z,7.83
2018-06-10T03:26:35.304Z,8.33
2018-06-10T03:31:39.207Z,9.80
2018-06-10T03:36:43.332Z,12.17
2018-06-10T03:41:47.302Z,11.87
2018-06-10T03:46:51.291Z,10.83
2018-06-10T03:51:55.275Z,9.97
2018-06-10T03:56:59.267Z,8.20
2018-06-10T04:02:04.895Z,7.70
2018-06-10T04:07:08.961Z,10.23
2018-06-10T04:12:12.943Z,6.90
2018-06-10T04:17:16.916Z,8.30
2018-06-10T04:22:20.930Z,6.67
2018-06-10T04:27:24.945Z,13.50
2018-06-10T04:32:28.918Z,8.80
2018-06-10T04:37:33.150Z,7.93
2018-06-10T04:42:37.139Z,10.57
2018-06-10T04:47:41.121Z,11.23
2018-06-10T04:52:45.135Z,9.80
2018-06-10T04:57:49.943Z,11.80
2018-06-10T05:02:53.921Z,9.13
2018-06-10T05:07:57.915Z,11.60
2018-06-10T05:13:01.878Z,7.97
2018-06-10T05:18:05.841Z,8.07
2018-06-10T05:23:09.806Z,8.23
2018-06-10T05:28:13.531Z,7.77
2018-06-10T05:33:17.386Z,11.37
2018-06-10T05:38:21.412Z,12.73
2018-06-10T05:43:25.399Z,10.83
2018-06-10T05:48:29.403Z,10.90
2018-06-10T05:53:33.367Z,10.50
2018-06-10T05:58:37.361Z,12.10
2018-06-10T06:03:41.338Z,12.20
2018-06-10T06:08:45.334Z,9.77
2018-06-10T06:13:49.313Z,8.97
2018-06-10T06:18:53.299Z,12.33
2018-06-10T06:23:57.300Z,13.27
2018-06-10T06:29:01.287Z,9.90
2018-06-10T06:34:05.267Z,12.73
2018-06-10T06:39:09.256Z,13.27
2018-06-10T06:44:13.247Z,11.37
2018-06-10T06:49:17.239Z,13.60
2018-06-10T06:54:21.213Z,13.43
2018-06-10T06:59:25.196Z,11.83
2018-06-10T07:04:29.140Z,14.77
2018-06-10T07:09:33.099Z,12.50
2018-06-10T07:14:37.052Z,15.60
2018-06-10T07:19:41.035Z,16.23
2018-06-10T07:24:44.801Z,14.17
2018-06-10T07:29:48.666Z,16.43
2018-06-10T07:34:52.630Z,23.20
2018-06-10T07:39:56.696Z,21.20
2018-06-10T07:45:00.655Z,23.03
2018-06-10T07:50:04.664Z,26.13
2018-06-10T07:55:08.653Z,22.97
2018-06-10T08:00:12.680Z,22.60
2018-06-10T08:05:16.406Z,23.53
2018-06-10T08:10:20.271Z,22.30
2018-06-10T08:15:24.234Z,20.60
2018-06-10T08:20:28.227Z,24.03
2018-06-10T08:25:32.206Z,31.80
2018-06-10T08:30:36.200Z,35.90
2018-06-10T08:35:39.961Z,32.83
2018-06-10T08:40:43.852Z,32.03
2018-06-10T08:45:47.572Z,34.77
2018-06-10T08:50:51.532Z,58.33
2018-06-10T08:55:55.522Z,32.33
2018-06-10T09:01:00.268Z,34.87
2018-06-10T09:06:04.257Z,32.67
2018-06-10T09:11:08.393Z,41.37
2018-06-10T09:16:12.423Z,33.17
2018-06-10T09:21:16.472Z,33.73
2018-06-10T09:26:20.474Z,39.93
2018-06-10T09:31:24.438Z,39.53
2018-06-10T09:36:28.419Z,42.63
2018-06-10T09:41:32.590Z,44.77
2018-06-10T09:46:36.591Z,39.47
2018-06-10T09:51:40.571Z,39.53
2018-06-10T09:56:44.584Z,40.87
2018-06-10T10:01:48.574Z,40.07
2018-06-10T10:06:52.643Z,39.07
2018-06-10T10:11:56.643Z,39.33
2018-06-10T10:17:00.629Z,36.03
2018-06-10T10:22:04.635Z,39.30
2018-06-10T10:27:08.606Z,31.97
2018-06-10T10:32:12.588Z,34.13
2018-06-10T10:37:16.638Z,35.03
2018-06-10T10:42:20.638Z,36.47
2018-06-10T10:47:24.655Z,32.53
2018-06-10T10:52:28.636Z,34.27
2018-06-10T10:57:32.636Z,38.10
2018-06-10T11:02:36.383Z,35.47
2018-06-10T11:07:40.279Z,36.73
2018-06-10T11:12:44.272Z,36.40
2018-06-10T11:17:48.216Z,36.13
2018-06-10T11:22:52.211Z,33.70
2018-06-10T11:27:56.191Z,32.67
2018-06-10T11:32:59.937Z,25.77
2018-06-10T11:38:03.802Z,26.23
2018-06-10T11:43:07.568Z,23.70
2018-06-10T11:48:11.437Z,26.10
2018-06-10T11:53:15.407Z,25.63
2018-06-10T11:58:19.379Z,26.63
2018-06-10T12:03:23.402Z,22.27
2018-06-10T12:08:27.424Z,25.10
2018-06-10T12:13:31.375Z,22.40
2018-06-10T12:18:35.398Z,21.83
2018-06-10T12:23:39.359Z,20.37
2018-06-10T12:28:43.359Z,21.53
2018-06-10T12:33:47.352Z,17.60
2018-06-10T12:38:52.067Z,14.87
2018-06-10T12:43:56.044Z,16.13
2018-06-10T12:49:00.608Z,16.97
2018-06-10T12:54:04.557Z,13.70
2018-06-10T12:59:08.511Z,14.67
2018-06-10T13:04:12.546Z,12.60
2018-06-10T13:09:16.596Z,12.80
2018-06-10T13:14:51.112Z,11.83
2018-06-10T13:19:55.078Z,11.03
2018-06-10T13:24:58.816Z,11.10
2018-06-10T13:30:02.687Z,9.33
2018-06-10T13:35:06.642Z,9.53
2018-06-10T13:40:10.608Z,10.83
2018-06-10T13:45:14.637Z,14.13
2018-06-10T13:50:18.614Z,8.33
2018-06-10T13:55:22.349Z,8.23
2018-06-10T14:00:26.219Z,6.83
2018-06-10T14:05:30.232Z,7.70
2018-06-10T14:10:34.205Z,13.83
2018-06-10T14:15:38.214Z,9.33
2018-06-10T14:20:42.220Z,14.13
2018-06-10T14:25:46.184Z,12.33
2018-06-10T14:30:53.469Z,10.80
2018-06-10T14:35:57.506Z,7.80
2018-06-10T14:41:01.506Z,13.00
2018-06-10T14:46:05.687Z,9.97
2018-06-10T14:51:09.668Z,7.50
2018-06-10T14:56:13.652Z,8.40
2018-06-10T15:01:17.636Z,10.83
2018-06-10T15:06:21.382Z,8.47
2018-06-10T15:11:25.214Z,9.43
2018-06-10T15:16:29.283Z,8.17
2018-06-10T15:21:35.171Z,9.50
2018-06-10T15:26:38.897Z,8.43
2018-06-10T15:31:42.742Z,8.67
2018-06-10T15:36:46.812Z,12.40
2018-06-10T15:41:50.800Z,8.87
2018-06-10T15:46:54.785Z,7.03
2018-06-10T15:51:58.742Z,8.27
2018-06-10T15:57:03.678Z,7.33
2018-06-10T16:02:09.405Z,7.27
2018-06-10T16:07:13.387Z,8.10
2018-06-10T16:12:17.372Z,8.87
2018-06-10T16:17:22.148Z,8.23
2018-06-10T16:22:26.102Z,9.93
2018-06-10T16:27:30.174Z,8.73
2018-06-10T16:32:34.156Z,11.83
2018-06-10T16:37:37.926Z,6.20
2018-06-10T16:42:41.732Z,10.80
2018-06-10T16:47:45.732Z,9.93
2018-06-10T16:52:49.748Z,6.63
2018-06-10T16:57:53.748Z,7.45
2018-06-10T17:02:57.800Z,8.60
2018-06-10T17:08:01.902Z,6.80
2018-06-10T17:13:05.772Z,8.93
2018-06-10T17:18:09.747Z,11.40
2018-06-10T17:23:13.750Z,8.13
2018-06-10T17:28:17.761Z,8.13
2018-06-10T17:33:21.708Z,7.27
2018-06-10T17:38:25.686Z,7.63
2018-06-10T17:43:29.707Z,10.33
2018-06-10T17:48:33.474Z,7.83
2018-06-10T17:53:37.346Z,11.57
2018-06-10T17:58:41.303Z,9.40
2018-06-10T18:03:45.358Z,10.03
2018-06-10T18:08:49.347Z,9.83
2018-06-10T18:13:55.950Z,7.63
2018-06-10T18:18:59.813Z,6.87
2018-06-10T18:24:03.800Z,7.40
2018-06-10T18:29:07.537Z,8.07
2018-06-10T18:34:11.399Z,7.93
2018-06-10T18:39:16.359Z,7.73
2018-06-10T18:44:20.324Z,8.27
2018-06-10T18:49:24.328Z,9.50
2018-06-10T18:54:30.841Z,9.87
2018-06-10T18:59:34.695Z,8.10
2018-06-10T19:04:38.692Z,8.30
2018-06-10T19:10:45.629Z,10.43
2018-06-10T19:15:49.604Z,7.90
2018-06-10T19:20:53.579Z,7.67
2018-06-10T19:25:58.074Z,10.53
2018-06-10T19:31:01.917Z,7.73
2018-06-10T19:36:06.111Z,10.57
2018-06-10T19:41:10.100Z,10.70
2018-06-10T19:46:14.076Z,9.67
2018-06-10T19:51:19.008Z,8.80
2018-06-10T19:56:23.283Z,8.20
2018-06-10T20:01:27.259Z,8.10
2018-06-10T20:06:31.253Z,8.20
2018-06-10T20:11:35.279Z,11.63
2018-06-10T20:16:39.273Z,9.33
2018-06-10T20:21:43.260Z,10.97
2018-06-10T20:27:49.979Z,8.07
2018-06-10T20:32:53.608Z,8.47
2018-06-10T20:37:59.044Z,7.73
2018-06-10T20:43:02.993Z,9.27
2018-06-10T20:48:06.987Z,8.03
2018-06-10T20:53:11.136Z,8.53
2018-06-10T20:58:15.160Z,8.47
2018-06-10T21:03:19.913Z,9.30
2018-06-10T21:08:23.948Z,11.20
2018-06-10T21:13:27.877Z,9.33
2018-06-10T21:18:31.847Z,9.17
2018-06-10T21:23:35.804Z,10.03
2018-06-10T21:28:40.515Z,10.80
2018-06-10T21:33:45.119Z,10.87
2018-06-10T21:38:49.465Z,11.40
2018-06-10T21:43:53.933Z,12.73
2018-06-10T21:48:59.140Z,12.00
2018-06-10T21:54:03.878Z,15.03
2018-06-10T21:59:08.866Z,12.57
2018-06-10T22:04:13.763Z,11.10
2018-06-10T22:09:20.135Z,11.63
2018-06-10T22:14:24.392Z,15.53
2018-06-10T22:19:28.670Z,9.83
2018-06-10T22:24:33.946Z,11.60
2018-06-10T22:29:38.335Z,12.57
2018-06-10T22:34:42.439Z,14.60
2018-06-10T22:39:46.963Z,13.23
2018-06-10T22:44:50.962Z,10.60
2018-06-10T22:49:54.934Z,12.10
2018-06-10T22:54:58.879Z,10.17
2018-06-10T23:00:02.897Z,9.87
2018-06-10T23:05:06.876Z,9.63
2018-06-10T23:10:10.879Z,9.67
2018-06-10T23:15:15.607Z,11.27
2018-06-10T23:20:19.579Z,9.40
2018-06-10T23:25:23.548Z,12.63
2018-06-10T23:30:27.283Z,11.47
2018-06-10T23:35:31.154Z,13.07
2018-06-10T23:40:34.891Z,10.80
2018-06-10T23:45:38.770Z,9.57
2018-06-10T23:50:42.761Z,10.27
2018-06-10T23:55:46.803Z,11.40
